LFBZ/BIQ METAR and TAF weather

Enter ICAO airport designator
Station Type Date Time Source
LFBZ METAR 2021/03/03 01:30 UTC NOAA

LFBZ 030130Z AUTO 19004KT 150V240 CAVOK 13/06 Q1028 NOSIG


Station Type Date Time Source
LFBZ Decoded METAR 2021/03/03 01:30 UTC NOAA

Biarritz, France (LFBZ) 43-28N 001-32W 71M
Mar 02, 2021 - 08:30 PM EST / 2021.03.03 0130 UTC
Wind: from the S (190 degrees) at 5 MPH (4 KT) (direction variable):0
Visibility: greater than 7 mile(s):0
Temperature: 55 F (13 C)
Dew Point: 42 F (6 C)
Relative Humidity: 62%
Pressure (altimeter): 30.36 in. Hg (1028 hPa)
ob: LFBZ 030130Z AUTO 19004KT 150V240 CAVOK 13/06 Q1028 NOSIG
cycle: 1

Station Type Date Time Source
LFBZ TAF 2021/03/02 18:47 UTC NOAA

TAF LFBZ 021700Z 0218/0318 16006KT CAVOK PROB30 0304/0307 0900 FG

Example: see airport list